createdAt,value
2022-10-18T00:00:14.302Z,13.26
2022-10-18T00:03:07.636Z,13.25
2022-10-18T00:05:39.231Z,13.21
2022-10-18T00:08:11.706Z,13.18
2022-10-18T00:10:43.372Z,13.18
2022-10-18T00:13:17.407Z,13.16
2022-10-18T00:15:53.828Z,13.15
2022-10-18T00:18:26.037Z,13.13
2022-10-18T00:21:02.580Z,13.12
2022-10-18T00:23:36.752Z,13.12
2022-10-18T00:26:10.941Z,13.11
2022-10-18T00:28:44.383Z,13.11
2022-10-18T00:31:19.412Z,13.09
2022-10-18T00:33:57.572Z,13.08
2022-10-18T00:36:30.816Z,13.06
2022-10-18T00:39:03.158Z,13.03
2022-10-18T00:41:36.206Z,13.02
2022-10-18T00:44:30.482Z,13.01
2022-10-18T00:47:06.147Z,12.99
2022-10-18T00:49:40.107Z,12.98
2022-10-18T00:52:16.614Z,12.97
2022-10-18T00:54:51.679Z,12.95
2022-10-18T00:57:23.357Z,12.93
2022-10-18T00:59:57.019Z,12.91
2022-10-18T01:02:29.512Z,12.89
2022-10-18T01:05:02.917Z,12.88
2022-10-18T01:08:07.617Z,12.85
2022-10-18T01:10:52.271Z,12.81
2022-10-18T01:13:40.544Z,12.78
2022-10-18T01:16:22.149Z,12.77
2022-10-18T01:19:00.927Z,12.75
2022-10-18T01:21:51.987Z,12.72
2022-10-18T01:24:46.876Z,12.71
2022-10-18T01:27:48.586Z,12.70
2022-10-18T01:30:45.434Z,12.68
2022-10-18T01:33:27.249Z,12.66
2022-10-18T01:36:05.538Z,12.61
2022-10-18T01:38:38.154Z,12.56
2022-10-18T01:41:14.867Z,12.50
2022-10-18T01:43:54.445Z,12.48
2022-10-18T01:46:27.485Z,12.49
2022-10-18T01:48:59.897Z,12.52
2022-10-18T01:51:33.269Z,12.53
2022-10-18T01:54:07.306Z,12.55
2022-10-18T01:56:46.078Z,12.55
2022-10-18T01:59:39.153Z,12.56
2022-10-18T02:02:20.320Z,12.55
2022-10-18T02:05:02.511Z,12.55
2022-10-18T02:07:38.502Z,12.52
2022-10-18T02:10:26.061Z,12.50
2022-10-18T02:12:58.693Z,12.46
2022-10-18T02:15:34.376Z,12.45
2022-10-18T02:18:10.394Z,12.45
2022-10-18T02:20:44.894Z,12.44
2022-10-18T02:23:17.957Z,12.43
2022-10-18T02:25:49.861Z,12.42
2022-10-18T02:28:21.801Z,12.41
2022-10-18T02:31:03.510Z,12.39
2022-10-18T02:33:41.006Z,12.38
2022-10-18T02:36:19.376Z,12.36
2022-10-18T02:38:57.213Z,12.32
2022-10-18T02:41:32.021Z,12.31
2022-10-18T02:44:05.567Z,12.30
2022-10-18T02:46:38.959Z,12.30
2022-10-18T02:49:10.564Z,12.31
2022-10-18T02:51:44.578Z,12.31
2022-10-18T02:54:16.137Z,12.31
2022-10-18T02:56:47.700Z,12.30
2022-10-18T02:59:19.393Z,12.28
2022-10-18T03:01:52.581Z,12.26
2022-10-18T03:04:24.293Z,12.20
2022-10-18T03:06:55.904Z,12.13
2022-10-18T03:09:27.664Z,12.12
2022-10-18T03:12:01.648Z,12.18
2022-10-18T03:14:33.474Z,12.22
2022-10-18T03:17:05.361Z,12.26
2022-10-18T03:19:38.687Z,12.31
2022-10-18T03:22:15.660Z,12.38
2022-10-18T03:24:47.583Z,12.43
2022-10-18T03:27:19.213Z,12.48
2022-10-18T03:29:50.746Z,12.53
2022-10-18T03:32:31.840Z,12.57
2022-10-18T03:35:03.604Z,12.57
2022-10-18T03:37:35.258Z,12.60
2022-10-18T03:40:11.410Z,12.63
2022-10-18T03:42:43.809Z,12.66
2022-10-18T03:45:15.471Z,12.68
2022-10-18T03:47:48.290Z,12.70
2022-10-18T03:50:23.378Z,12.72
2022-10-18T03:52:55.617Z,12.75
2022-10-18T03:55:27.568Z,12.76
2022-10-18T03:57:59.208Z,12.77
2022-10-18T04:00:31.221Z,12.78
2022-10-18T04:03:11.737Z,12.81
2022-10-18T04:05:43.254Z,12.83
2022-10-18T04:08:15.336Z,12.84
2022-10-18T04:10:47.031Z,12.86
2022-10-18T04:13:18.648Z,12.87
2022-10-18T04:15:50.161Z,12.87
2022-10-18T04:18:21.698Z,12.86
2022-10-18T04:20:53.296Z,12.86
2022-10-18T04:23:24.917Z,12.87
2022-10-18T04:25:56.514Z,12.87
2022-10-18T04:28:28.205Z,12.88
2022-10-18T04:30:59.729Z,12.86
2022-10-18T04:33:32.933Z,12.80
2022-10-18T04:36:04.716Z,12.79
2022-10-18T04:38:36.290Z,12.81
2022-10-18T04:41:08.015Z,12.84
2022-10-18T04:43:40.634Z,12.86
2022-10-18T04:46:12.145Z,12.88
2022-10-18T04:48:43.795Z,12.87
2022-10-18T04:51:15.372Z,12.86
2022-10-18T04:53:48.545Z,12.79
2022-10-18T04:56:20.721Z,12.73
2022-10-18T04:58:52.298Z,12.69
2022-10-18T05:01:23.862Z,12.70
2022-10-18T05:03:58.120Z,12.71
2022-10-18T05:06:29.776Z,12.74
2022-10-18T05:09:01.574Z,12.79
2022-10-18T05:11:36.387Z,12.85
2022-10-18T05:14:11.058Z,12.89
2022-10-18T05:16:51.710Z,12.92
2022-10-18T05:19:23.937Z,12.95
2022-10-18T05:21:55.494Z,12.98
2022-10-18T05:25:25.063Z,12.99
2022-10-18T05:28:10.995Z,12.99
2022-10-18T05:31:06.198Z,13.00
2022-10-18T05:33:37.910Z,12.99
2022-10-18T05:36:11.934Z,12.98
2022-10-18T05:38:45.610Z,12.95
2022-10-18T05:41:18.813Z,12.92
2022-10-18T05:43:50.462Z,12.91
2022-10-18T05:46:23.098Z,12.91
2022-10-18T05:48:54.655Z,12.94
2022-10-18T05:51:27.448Z,12.99
2022-10-18T05:53:59.672Z,13.02
2022-10-18T05:56:31.740Z,13.06
2022-10-18T05:59:05.199Z,13.14
2022-10-18T06:01:37.564Z,13.17
2022-10-18T06:04:11.221Z,13.24
2022-10-18T06:06:42.779Z,13.30
2022-10-18T06:09:14.546Z,13.35
2022-10-18T06:11:47.986Z,13.39
2022-10-18T06:14:19.574Z,13.41
2022-10-18T06:16:51.736Z,13.43
2022-10-18T06:19:23.265Z,13.47
2022-10-18T06:21:56.731Z,13.51
2022-10-18T06:24:28.596Z,13.57
2022-10-18T06:27:01.187Z,13.59
2022-10-18T06:29:32.856Z,13.64
2022-10-18T06:32:12.318Z,13.71
2022-10-18T06:34:44.025Z,13.79
2022-10-18T06:37:16.507Z,13.88
2022-10-18T06:39:48.067Z,13.93
2022-10-18T06:42:22.547Z,13.98
2022-10-18T06:44:55.136Z,14.05
2022-10-18T06:47:27.978Z,14.11
2022-10-18T06:50:01.246Z,14.13
2022-10-18T06:52:53.107Z,14.17
2022-10-18T06:55:27.691Z,14.22
2022-10-18T06:57:59.273Z,14.28
2022-10-18T07:00:31.002Z,14.33
2022-10-18T07:03:02.556Z,14.38
2022-10-18T07:05:34.209Z,14.44
2022-10-18T07:08:07.532Z,14.52
2022-10-18T07:10:39.147Z,14.60
2022-10-18T07:13:31.612Z,14.69
2022-10-18T07:16:08.668Z,14.74
2022-10-18T07:18:42.554Z,14.79
2022-10-18T07:21:16.856Z,14.85
2022-10-18T07:23:48.782Z,14.86
2022-10-18T07:26:22.336Z,14.85
2022-10-18T07:28:58.052Z,14.84
2022-10-18T07:31:30.550Z,14.81
2022-10-18T07:34:03.229Z,14.82
2022-10-18T07:36:34.879Z,14.87
2022-10-18T07:39:06.835Z,14.97
2022-10-18T07:41:38.729Z,15.08
2022-10-18T07:44:11.042Z,15.19
2022-10-18T07:46:42.582Z,15.28
2022-10-18T07:49:14.143Z,15.36
2022-10-18T07:51:45.728Z,15.42
2022-10-18T07:54:17.506Z,15.46
2022-10-18T07:56:49.119Z,15.50
2022-10-18T07:59:20.769Z,15.55
2022-10-18T08:01:52.511Z,15.62
2022-10-18T08:04:25.143Z,15.66
2022-10-18T08:06:56.685Z,15.72
2022-10-18T08:09:28.613Z,15.83
2022-10-18T08:12:00.858Z,15.94
2022-10-18T08:14:32.530Z,16.01
2022-10-18T08:17:06.114Z,16.04
2022-10-18T08:19:44.646Z,16.07
2022-10-18T08:22:24.620Z,16.10
2022-10-18T08:24:56.260Z,16.12
2022-10-18T08:27:28.173Z,16.14
2022-10-18T08:30:03.210Z,16.14
2022-10-18T08:32:41.523Z,16.14
2022-10-18T08:35:13.995Z,16.14
2022-10-18T08:37:46.348Z,16.11
2022-10-18T08:40:25.843Z,16.06
2022-10-18T08:43:08.249Z,16.01
2022-10-18T08:45:46.048Z,15.97
2022-10-18T08:49:38.588Z,15.91
2022-10-18T08:52:27.943Z,15.84
2022-10-18T08:55:04.690Z,15.81
2022-10-18T08:57:36.571Z,15.78
2022-10-18T09:00:19.859Z,15.76
2022-10-18T09:03:05.558Z,15.76
2022-10-18T09:05:45.737Z,15.75
2022-10-18T09:08:34.850Z,15.74
2022-10-18T09:11:20.175Z,15.73
2022-10-18T09:14:14.841Z,15.73
2022-10-18T09:16:58.196Z,15.74
2022-10-18T09:19:44.459Z,15.76
2022-10-18T09:22:18.706Z,15.77
2022-10-18T09:25:03.236Z,15.78
2022-10-18T09:27:43.337Z,15.81
2022-10-18T09:30:27.108Z,15.83
2022-10-18T09:33:14.627Z,15.83
2022-10-18T09:36:01.245Z,15.83
2022-10-18T09:38:36.247Z,15.85
2022-10-18T09:41:16.928Z,15.86
2022-10-18T09:43:56.715Z,15.88
2022-10-18T09:46:33.383Z,15.89
2022-10-18T09:49:11.754Z,15.90
2022-10-18T09:51:46.158Z,15.91
2022-10-18T09:54:25.623Z,15.92
2022-10-18T09:57:03.828Z,15.94
2022-10-18T09:59:42.034Z,15.90
2022-10-18T10:02:17.421Z,15.84
2022-10-18T10:04:49.385Z,15.80
2022-10-18T10:07:22.582Z,15.74
2022-10-18T10:10:11.819Z,15.68
2022-10-18T10:12:45.159Z,15.61
2022-10-18T10:15:23.266Z,15.55
2022-10-18T10:18:00.334Z,15.51
2022-10-18T10:20:38.512Z,15.46
2022-10-18T10:25:58.076Z,15.46
2022-10-18T10:28:32.629Z,15.43
2022-10-18T10:31:27.982Z,15.37
2022-10-18T10:34:04.712Z,15.31
2022-10-18T10:36:47.042Z,15.28
2022-10-18T10:39:20.195Z,15.24
2022-10-18T10:41:54.071Z,15.21
2022-10-18T10:44:30.215Z,15.21
2022-10-18T10:47:02.779Z,15.21
2022-10-18T10:49:48.755Z,15.19
2022-10-18T10:52:29.592Z,15.16
2022-10-18T10:55:23.576Z,15.13
2022-10-18T10:58:05.105Z,15.11
2022-10-18T11:00:45.317Z,15.08
2022-10-18T11:03:34.998Z,15.07
2022-10-18T11:06:06.951Z,15.05
2022-10-18T11:08:43.697Z,15.05
2022-10-18T11:11:27.701Z,15.04
2022-10-18T11:17:07.761Z,15.06
2022-10-18T11:19:45.790Z,15.06
2022-10-18T11:22:22.927Z,15.10
2022-10-18T11:24:54.536Z,15.15
2022-10-18T11:27:30.657Z,15.19
2022-10-18T11:30:21.701Z,15.18
2022-10-18T11:33:00.362Z,15.15
2022-10-18T11:35:43.598Z,15.07
2022-10-18T11:38:28.466Z,15.01
2022-10-18T11:41:30.591Z,14.97
2022-10-18T11:44:04.286Z,14.98
2022-10-18T11:46:53.369Z,15.01
2022-10-18T11:49:46.069Z,15.05
2022-10-18T11:52:28.872Z,15.09
2022-10-18T11:55:17.745Z,15.10
2022-10-18T11:57:56.841Z,15.12
2022-10-18T12:00:47.604Z,15.14
2022-10-18T12:03:46.469Z,15.17
2022-10-18T12:06:22.320Z,15.26
2022-10-18T12:09:02.657Z,15.35
2022-10-18T12:11:47.132Z,15.41
2022-10-18T12:14:27.602Z,15.48
2022-10-18T12:17:35.534Z,15.52
2022-10-18T12:19:58.354Z,15.55
2022-10-18T12:22:36.605Z,15.59
2022-10-18T12:25:14.070Z,15.64
2022-10-18T12:28:09.525Z,15.67
2022-10-18T12:30:48.298Z,15.67
2022-10-18T12:33:28.120Z,15.69
2022-10-18T12:36:12.741Z,15.71
2022-10-18T12:38:46.646Z,15.74
2022-10-18T12:41:21.927Z,15.74
2022-10-18T12:44:00.766Z,15.72
2022-10-18T12:46:47.652Z,15.70
2022-10-18T12:49:25.332Z,15.70
2022-10-18T12:51:59.624Z,15.72
2022-10-18T12:54:34.557Z,15.72
2022-10-18T12:57:18.532Z,15.72
2022-10-18T12:59:50.756Z,15.70
2022-10-18T13:02:33.164Z,15.69
2022-10-18T13:05:56.258Z,15.71
2022-10-18T13:08:41.890Z,15.68
2022-10-18T13:11:36.078Z,15.65
2022-10-18T13:14:38.754Z,15.62
2022-10-18T13:17:27.041Z,15.60
2022-10-18T13:20:25.457Z,15.59
2022-10-18T13:23:08.614Z,15.58
2022-10-18T13:25:55.381Z,15.57
2022-10-18T13:28:37.110Z,15.56
2022-10-18T13:31:20.469Z,15.57
2022-10-18T13:33:52.312Z,15.58
2022-10-18T13:36:26.437Z,15.58
2022-10-18T13:39:06.832Z,15.55
2022-10-18T13:42:09.414Z,15.54
2022-10-18T13:44:42.031Z,15.52
2022-10-18T13:47:17.388Z,15.51
2022-10-18T13:53:36.688Z,15.49
2022-10-18T13:56:41.556Z,15.51
2022-10-18T13:59:31.226Z,15.54
2022-10-18T14:02:49.899Z,15.59
2022-10-18T14:05:37.862Z,15.64
2022-10-18T14:08:16.912Z,15.68
2022-10-18T14:11:02.538Z,15.71
2022-10-18T14:13:48.222Z,15.74
2022-10-18T14:16:32.079Z,15.76
2022-10-18T14:19:13.233Z,15.77
2022-10-18T14:21:52.245Z,15.79
2022-10-18T14:24:28.391Z,15.79
2022-10-18T14:27:22.006Z,15.76
2022-10-18T14:30:18.474Z,15.72
2022-10-18T14:32:52.817Z,15.68
2022-10-18T14:35:32.665Z,15.64
2022-10-18T14:38:07.218Z,15.60
2022-10-18T14:40:42.138Z,15.58
2022-10-18T14:43:21.076Z,15.54
2022-10-18T14:45:52.797Z,15.49
2022-10-18T14:48:25.144Z,15.45
2022-10-18T14:51:02.219Z,15.40
2022-10-18T14:53:38.750Z,15.36
2022-10-18T14:56:24.457Z,15.35
2022-10-18T14:58:57.854Z,15.35
2022-10-18T15:01:32.272Z,15.35
2022-10-18T15:04:13.281Z,15.36
2022-10-18T15:06:47.267Z,15.32
2022-10-18T15:09:24.299Z,15.29
2022-10-18T15:11:58.014Z,15.25
2022-10-18T15:14:31.603Z,15.21
2022-10-18T15:17:15.081Z,15.17
2022-10-18T15:20:00.463Z,15.16
2022-10-18T15:22:35.807Z,15.13
2022-10-18T15:25:16.056Z,15.09
2022-10-18T15:27:50.628Z,15.06
2022-10-18T15:30:28.184Z,15.05
2022-10-18T15:33:01.602Z,15.04
2022-10-18T15:35:35.071Z,15.02
2022-10-18T15:38:17.665Z,15.02
2022-10-18T15:40:49.363Z,14.99
2022-10-18T15:43:39.925Z,15.00
2022-10-18T15:46:32.762Z,14.98
2022-10-18T15:49:56.750Z,14.97
2022-10-18T15:52:38.779Z,14.95
2022-10-18T15:55:45.260Z,14.96
2022-10-18T15:58:21.233Z,14.96
2022-10-18T16:00:56.777Z,14.93
2022-10-18T16:03:29.619Z,14.90
2022-10-18T16:06:05.029Z,14.87
2022-10-18T16:08:41.909Z,14.86
2022-10-18T16:11:17.059Z,14.84
2022-10-18T16:13:48.876Z,14.83
2022-10-18T16:16:23.112Z,14.78
2022-10-18T16:18:55.685Z,14.72
2022-10-18T16:21:29.034Z,14.69
2022-10-18T16:24:01.299Z,14.64
2022-10-18T16:26:33.292Z,14.59
2022-10-18T16:29:05.816Z,14.56
2022-10-18T16:31:38.452Z,14.53
2022-10-18T16:34:11.311Z,14.48
2022-10-18T16:36:43.398Z,14.43
2022-10-18T16:39:18.536Z,14.40
2022-10-18T16:41:51.491Z,14.39
2022-10-18T16:44:23.185Z,14.41
2022-10-18T16:46:56.282Z,14.43
2022-10-18T16:49:28.731Z,14.43
2022-10-18T16:52:00.688Z,14.44
2022-10-18T16:54:32.423Z,14.44
2022-10-18T16:57:04.093Z,14.43
2022-10-18T16:59:35.741Z,14.43
2022-10-18T17:02:09.608Z,14.42
2022-10-18T17:04:41.281Z,14.41
2022-10-18T17:07:23.118Z,14.41
2022-10-18T17:09:54.949Z,14.40
2022-10-18T17:12:26.769Z,14.40
2022-10-18T17:14:58.326Z,14.40
2022-10-18T17:17:30.357Z,14.42
2022-10-18T17:20:02.117Z,14.42
2022-10-18T17:22:33.903Z,14.39
2022-10-18T17:25:06.043Z,14.35
2022-10-18T17:27:37.651Z,14.28
2022-10-18T17:30:13.710Z,14.22
2022-10-18T17:33:13.763Z,14.16
2022-10-18T17:35:45.747Z,14.12
2022-10-18T17:38:17.530Z,14.10
2022-10-18T17:40:49.290Z,14.05
2022-10-18T17:43:21.667Z,14.02
2022-10-18T17:45:57.929Z,13.98
2022-10-18T17:48:29.828Z,13.96
2022-10-18T17:51:01.581Z,13.93
2022-10-18T17:53:35.107Z,13.89
2022-10-18T17:56:07.974Z,13.84
2022-10-18T17:58:39.837Z,13.79
2022-10-18T18:01:19.067Z,13.73
2022-10-18T18:03:50.828Z,13.68
2022-10-18T18:06:24.143Z,13.64
2022-10-18T18:08:56.079Z,13.59
2022-10-18T18:11:28.729Z,13.52
2022-10-18T18:14:00.950Z,13.46
2022-10-18T18:16:32.915Z,13.41
2022-10-18T18:19:09.419Z,13.38
2022-10-18T18:21:42.144Z,13.35
2022-10-18T18:24:15.867Z,13.32
2022-10-18T18:26:47.600Z,13.30
2022-10-18T18:29:19.411Z,13.28
2022-10-18T18:31:51.662Z,13.27
2022-10-18T18:34:23.476Z,13.25
2022-10-18T18:36:55.250Z,13.23
2022-10-18T18:39:29.946Z,13.20
2022-10-18T18:42:02.002Z,13.17
2022-10-18T18:44:34.261Z,13.14
2022-10-18T18:47:09.656Z,13.10
2022-10-18T18:49:45.086Z,13.07
2022-10-18T18:52:16.889Z,13.04
2022-10-18T18:54:48.723Z,12.99
2022-10-18T18:57:20.788Z,12.95
2022-10-18T18:59:52.681Z,12.92
2022-10-18T19:02:24.400Z,12.90
2022-10-18T19:04:56.346Z,12.87
2022-10-18T19:07:28.098Z,12.83
2022-10-18T19:09:59.988Z,12.79
2022-10-18T19:12:31.871Z,12.74
2022-10-18T19:15:03.693Z,12.69
2022-10-18T19:17:35.778Z,12.66
2022-10-18T19:20:19.465Z,12.63
2022-10-18T19:22:51.506Z,12.61
2022-10-18T19:25:24.852Z,12.59
2022-10-18T19:27:58.667Z,12.57
2022-10-18T19:30:38.771Z,12.55
2022-10-18T19:33:12.117Z,12.51
2022-10-18T19:35:43.697Z,12.49
2022-10-18T19:38:15.245Z,12.48
2022-10-18T19:40:51.604Z,12.45
2022-10-18T19:43:25.256Z,12.44
2022-10-18T19:45:56.965Z,12.42
2022-10-18T19:48:28.569Z,12.42
2022-10-18T19:51:07.000Z,12.41
2022-10-18T19:53:40.534Z,12.41
2022-10-18T19:56:18.438Z,12.40
2022-10-18T19:58:50.985Z,12.39
2022-10-18T20:01:24.134Z,12.37
2022-10-18T20:03:56.158Z,12.36
2022-10-18T20:06:28.037Z,12.34
2022-10-18T20:08:59.765Z,12.33
2022-10-18T20:11:36.841Z,12.32
2022-10-18T20:14:09.742Z,12.31
2022-10-18T20:16:41.319Z,12.28
2022-10-18T20:19:12.879Z,12.27
2022-10-18T20:21:44.503Z,12.24
2022-10-18T20:24:16.060Z,12.23
2022-10-18T20:26:47.704Z,12.23
2022-10-18T20:29:19.231Z,12.24
2022-10-18T20:31:51.663Z,12.25
2022-10-18T20:34:26.085Z,12.30
2022-10-18T20:36:57.887Z,12.34
2022-10-18T20:39:29.675Z,12.39
2022-10-18T20:42:01.342Z,12.42
2022-10-18T20:44:34.034Z,12.45
2022-10-18T20:47:05.547Z,12.50
2022-10-18T20:49:37.197Z,12.53
2022-10-18T20:52:10.469Z,12.55
2022-10-18T20:54:41.977Z,12.56
2022-10-18T20:57:13.489Z,12.58
2022-10-18T20:59:45.094Z,12.61
2022-10-18T21:02:17.732Z,12.64
2022-10-18T21:04:49.303Z,12.64
2022-10-18T21:07:21.004Z,12.66
2022-10-18T21:09:52.837Z,12.69
2022-10-18T21:12:26.460Z,12.71
2022-10-18T21:15:00.386Z,12.74
2022-10-18T21:17:31.964Z,12.75
2022-10-18T21:20:03.498Z,12.78
2022-10-18T21:22:35.356Z,12.79
2022-10-18T21:25:08.953Z,12.78
2022-10-18T21:27:40.725Z,12.78
2022-10-18T21:30:15.088Z,12.77
2022-10-18T21:32:53.972Z,12.80
2022-10-18T21:35:25.576Z,12.83
2022-10-18T21:37:57.152Z,12.85
2022-10-18T21:40:28.863Z,12.87
2022-10-18T21:43:01.231Z,12.85
2022-10-18T21:45:32.746Z,12.84
2022-10-18T21:48:05.317Z,12.82
2022-10-18T21:50:37.717Z,12.83
2022-10-18T21:53:09.249Z,12.83
2022-10-18T21:55:40.768Z,12.84
2022-10-18T21:58:12.306Z,12.86
2022-10-18T22:00:43.901Z,12.87
2022-10-18T22:03:17.149Z,12.86
2022-10-18T22:05:48.778Z,12.85
2022-10-18T22:08:20.381Z,12.83
2022-10-18T22:10:51.901Z,12.81
2022-10-18T22:13:25.107Z,12.78
2022-10-18T22:15:57.250Z,12.74
2022-10-18T22:18:29.614Z,12.70
2022-10-18T22:21:02.934Z,12.67
2022-10-18T22:23:40.356Z,12.63
2022-10-18T22:26:13.530Z,12.59
2022-10-18T22:28:46.620Z,12.53
2022-10-18T22:31:20.220Z,12.50
2022-10-18T22:33:58.322Z,12.50
2022-10-18T22:36:30.795Z,12.52
2022-10-18T22:39:02.790Z,12.48
2022-10-18T22:41:35.146Z,12.45
2022-10-18T22:44:08.224Z,12.45
2022-10-18T22:46:39.804Z,12.41
2022-10-18T22:49:12.244Z,12.35
2022-10-18T22:51:44.184Z,12.28
2022-10-18T22:54:16.686Z,12.24
2022-10-18T22:56:48.195Z,12.21
2022-10-18T22:59:19.863Z,12.22
2022-10-18T23:01:51.930Z,12.20
2022-10-18T23:04:24.361Z,12.19
2022-10-18T23:06:55.961Z,12.16
2022-10-18T23:09:27.990Z,12.11
2022-10-18T23:11:59.593Z,12.10
2022-10-18T23:14:32.030Z,12.07
2022-10-18T23:17:03.576Z,12.03
2022-10-18T23:19:35.151Z,11.98
2022-10-18T23:22:06.662Z,11.94
2022-10-18T23:24:38.992Z,11.89
2022-10-18T23:27:11.514Z,11.85
2022-10-18T23:29:43.088Z,11.81
2022-10-18T23:32:14.600Z,11.76
2022-10-18T23:34:46.981Z,11.69
2022-10-18T23:37:18.469Z,11.63
2022-10-18T23:39:50.004Z,11.56
2022-10-18T23:42:21.545Z,11.51
2022-10-18T23:44:54.949Z,11.48
2022-10-18T23:47:26.511Z,11.48
2022-10-18T23:49:59.862Z,11.44
2022-10-18T23:52:31.372Z,11.41
2022-10-18T23:55:03.679Z,11.40
2022-10-18T23:57:35.510Z,11.41
